KBCB/BCB METAR and TAF weather

Enter ICAO airport designator
Station Type Date Time Source
KBCB METAR 2019/10/21 04:55 UTC NOAA

KBCB 210455Z AUTO 00000KT 10SM SCT018 11/11 A3006 RMK AO2 T01140114 401960086


Station Type Date Time Source
KBCB Decoded METAR 2019/10/21 04:55 UTC NOAA

Virginia Tech Airport, VA, United States (KBCB) 37-13N 080-25W
Oct 21, 2019 - 12:55 AM EDT / 2019.10.21 0455 UTC
Wind: Calm:0
Visibility: 10 mile(s):0
Sky conditions: partly cloudy
Temperature: 52.5 F (11.4 C)
Dew Point: 52.5 F (11.4 C)
Relative Humidity: 100%
Pressure (altimeter): 30.06 in. Hg (1017 hPa)
ob: KBCB 210455Z AUTO 00000KT 10SM SCT018 11/11 A3006 RMK AO2 T01140114 401960086

Station Type Date Time Source
KBCB TAF 2019/10/20 22:45 UTC NOAA

TAF
AMD KBCB 202142Z 2022/2118 32006KT P6SM SCT026
TEMPO 2022/2101 BKN026
FM210400 VRB03KT 1/4SM FG OVC003
FM211500 VRB04KT P6SM BKN007 BKN012

Example: see airport list